sensor_id;sensor_type;location;lat;lon;timestamp;P1;durP1;ratioP1;P2;durP2;ratioP2
47713;SDS011;33475;46.614;13.888;2023-08-21T00:01:51;9.55;;;8.85;;
47713;SDS011;33475;46.614;13.888;2023-08-21T00:04:17;9.77;;;8.85;;
47713;SDS011;33475;46.614;13.888;2023-08-21T00:06:44;10.18;;;9.27;;
47713;SDS011;33475;46.614;13.888;2023-08-21T00:09:10;9.43;;;8.48;;
47713;SDS011;33475;46.614;13.888;2023-08-21T00:11:36;10.95;;;8.73;;
47713;SDS011;33475;46.614;13.888;2023-08-21T00:14:02;9.60;;;8.68;;
47713;SDS011;33475;46.614;13.888;2023-08-21T00:16:29;8.82;;;8.13;;
47713;SDS011;33475;46.614;13.888;2023-08-21T00:18:55;11.98;;;8.20;;
47713;SDS011;33475;46.614;13.888;2023-08-21T00:21:21;9.65;;;8.77;;
47713;SDS011;33475;46.614;13.888;2023-08-21T00:23:47;9.25;;;8.30;;
47713;SDS011;33475;46.614;13.888;2023-08-21T00:26:13;9.85;;;8.32;;
47713;SDS011;33475;46.614;13.888;2023-08-21T00:28:39;19.08;;;9.35;;
47713;SDS011;33475;46.614;13.888;2023-08-21T00:31:06;10.45;;;9.30;;
47713;SDS011;33475;46.614;13.888;2023-08-21T00:33:32;12.32;;;8.90;;
47713;SDS011;33475;46.614;13.888;2023-08-21T00:35:58;9.75;;;8.82;;
47713;SDS011;33475;46.614;13.888;2023-08-21T00:38:25;9.82;;;9.02;;
47713;SDS011;33475;46.614;13.888;2023-08-21T00:40:51;10.57;;;8.80;;
47713;SDS011;33475;46.614;13.888;2023-08-21T00:43:18;10.98;;;9.00;;
47713;SDS011;33475;46.614;13.888;2023-08-21T00:45:44;10.68;;;9.00;;
47713;SDS011;33475;46.614;13.888;2023-08-21T00:48:11;10.88;;;9.05;;
47713;SDS011;33475;46.614;13.888;2023-08-21T00:50:37;9.30;;;8.50;;
47713;SDS011;33475;46.614;13.888;2023-08-21T00:53:04;9.43;;;8.50;;
47713;SDS011;33475;46.614;13.888;2023-08-21T00:55:31;9.32;;;8.50;;
47713;SDS011;33475;46.614;13.888;2023-08-21T00:57:58;9.50;;;8.73;;
47713;SDS011;33475;46.614;13.888;2023-08-21T01:00:24;9.80;;;9.02;;
47713;SDS011;33475;46.614;13.888;2023-08-21T01:02:51;9.10;;;8.43;;
47713;SDS011;33475;46.614;13.888;2023-08-21T01:05:22;8.80;;;8.02;;
47713;SDS011;33475;46.614;13.888;2023-08-21T01:07:53;10.23;;;8.90;;
47713;SDS011;33475;46.614;13.888;2023-08-21T01:10:34;9.95;;;8.98;;
47713;SDS011;33475;46.614;13.888;2023-08-21T01:13:09;9.23;;;8.43;;
47713;SDS011;33475;46.614;13.888;2023-08-21T01:15:38;10.05;;;9.15;;
47713;SDS011;33475;46.614;13.888;2023-08-21T01:18:05;9.55;;;8.85;;
47713;SDS011;33475;46.614;13.888;2023-08-21T01:20:31;8.65;;;7.97;;
47713;SDS011;33475;46.614;13.888;2023-08-21T01:23:02;9.60;;;8.82;;
47713;SDS011;33475;46.614;13.888;2023-08-21T01:25:31;9.82;;;8.98;;
47713;SDS011;33475;46.614;13.888;2023-08-21T01:27:57;9.73;;;8.93;;
47713;SDS011;33475;46.614;13.888;2023-08-21T01:30:23;9.13;;;8.43;;
47713;SDS011;33475;46.614;13.888;2023-08-21T01:35:20;10.50;;;8.20;;
47713;SDS011;33475;46.614;13.888;2023-08-21T01:37:46;9.90;;;8.98;;
47713;SDS011;33475;46.614;13.888;2023-08-21T01:40:12;13.27;;;8.45;;
47713;SDS011;33475;46.614;13.888;2023-08-21T01:42:45;10.05;;;9.05;;
47713;SDS011;33475;46.614;13.888;2023-08-21T01:45:11;10.95;;;9.70;;
47713;SDS011;33475;46.614;13.888;2023-08-21T01:47:38;10.20;;;9.25;;
47713;SDS011;33475;46.614;13.888;2023-08-21T01:50:04;11.25;;;9.95;;
47713;SDS011;33475;46.614;13.888;2023-08-21T01:52:30;10.43;;;9.70;;
47713;SDS011;33475;46.614;13.888;2023-08-21T01:54:58;10.93;;;9.82;;
47713;SDS011;33475;46.614;13.888;2023-08-21T01:57:24;9.85;;;9.05;;
47713;SDS011;33475;46.614;13.888;2023-08-21T01:59:50;10.90;;;9.85;;
47713;SDS011;33475;46.614;13.888;2023-08-21T02:02:16;10.50;;;9.68;;
47713;SDS011;33475;46.614;13.888;2023-08-21T02:04:42;10.20;;;9.30;;
47713;SDS011;33475;46.614;13.888;2023-08-21T02:07:08;10.98;;;9.75;;
47713;SDS011;33475;46.614;13.888;2023-08-21T02:09:35;11.00;;;10.20;;
47713;SDS011;33475;46.614;13.888;2023-08-21T02:12:01;13.48;;;10.25;;
47713;SDS011;33475;46.614;13.888;2023-08-21T02:14:27;11.10;;;10.20;;
47713;SDS011;33475;46.614;13.888;2023-08-21T02:16:54;11.82;;;10.82;;
47713;SDS011;33475;46.614;13.888;2023-08-21T02:19:20;12.70;;;11.60;;
47713;SDS011;33475;46.614;13.888;2023-08-21T02:21:46;10.68;;;9.57;;
47713;SDS011;33475;46.614;13.888;2023-08-21T02:24:12;12.77;;;9.88;;
47713;SDS011;33475;46.614;13.888;2023-08-21T02:26:38;10.25;;;9.45;;
47713;SDS011;33475;46.614;13.888;2023-08-21T02:29:04;10.20;;;9.20;;
47713;SDS011;33475;46.614;13.888;2023-08-21T02:31:30;11.00;;;10.00;;
47713;SDS011;33475;46.614;13.888;2023-08-21T02:33:56;13.60;;;10.43;;
47713;SDS011;33475;46.614;13.888;2023-08-21T02:36:23;11.25;;;9.93;;
47713;SDS011;33475;46.614;13.888;2023-08-21T02:38:49;11.00;;;10.18;;
47713;SDS011;33475;46.614;13.888;2023-08-21T02:41:15;10.82;;;10.02;;
47713;SDS011;33475;46.614;13.888;2023-08-21T02:43:43;10.52;;;9.52;;
47713;SDS011;33475;46.614;13.888;2023-08-21T02:46:09;11.43;;;10.30;;
47713;SDS011;33475;46.614;13.888;2023-08-21T02:48:35;11.27;;;10.20;;
47713;SDS011;33475;46.614;13.888;2023-08-21T02:51:01;11.95;;;10.52;;
47713;SDS011;33475;46.614;13.888;2023-08-21T02:53:28;10.55;;;9.55;;
47713;SDS011;33475;46.614;13.888;2023-08-21T02:55:54;14.70;;;10.18;;
47713;SDS011;33475;46.614;13.888;2023-08-21T02:58:21;10.00;;;9.20;;
47713;SDS011;33475;46.614;13.888;2023-08-21T03:00:47;10.63;;;9.50;;
47713;SDS011;33475;46.614;13.888;2023-08-21T03:03:14;11.00;;;10.10;;
47713;SDS011;33475;46.614;13.888;2023-08-21T03:05:40;10.75;;;9.68;;
47713;SDS011;33475;46.614;13.888;2023-08-21T03:08:06;11.60;;;9.65;;
47713;SDS011;33475;46.614;13.888;2023-08-21T03:10:32;10.77;;;9.77;;
47713;SDS011;33475;46.614;13.888;2023-08-21T03:12:59;11.70;;;9.93;;
47713;SDS011;33475;46.614;13.888;2023-08-21T03:15:25;9.80;;;8.90;;
47713;SDS011;33475;46.614;13.888;2023-08-21T03:17:51;10.60;;;9.63;;
47713;SDS011;33475;46.614;13.888;2023-08-21T03:20:17;14.10;;;9.60;;
47713;SDS011;33475;46.614;13.888;2023-08-21T03:22:44;12.60;;;10.93;;
47713;SDS011;33475;46.614;13.888;2023-08-21T03:25:10;13.60;;;11.70;;
47713;SDS011;33475;46.614;13.888;2023-08-21T03:27:36;21.05;;;12.95;;
47713;SDS011;33475;46.614;13.888;2023-08-21T03:30:07;13.50;;;12.13;;
47713;SDS011;33475;46.614;13.888;2023-08-21T03:32:34;12.02;;;10.88;;
47713;SDS011;33475;46.614;13.888;2023-08-21T03:35:00;19.67;;;13.27;;
47713;SDS011;33475;46.614;13.888;2023-08-21T03:37:27;16.25;;;11.48;;
47713;SDS011;33475;46.614;13.888;2023-08-21T03:39:53;14.10;;;12.23;;
47713;SDS011;33475;46.614;13.888;2023-08-21T03:42:19;14.20;;;12.00;;
47713;SDS011;33475;46.614;13.888;2023-08-21T03:44:45;12.32;;;11.13;;
47713;SDS011;33475;46.614;13.888;2023-08-21T03:47:14;14.07;;;11.55;;
47713;SDS011;33475;46.614;13.888;2023-08-21T03:49:41;13.13;;;10.88;;
47713;SDS011;33475;46.614;13.888;2023-08-21T03:52:07;13.13;;;11.50;;
47713;SDS011;33475;46.614;13.888;2023-08-21T03:54:33;12.85;;;11.57;;
47713;SDS011;33475;46.614;13.888;2023-08-21T03:56:59;12.80;;;11.25;;
47713;SDS011;33475;46.614;13.888;2023-08-21T03:59:25;12.63;;;11.13;;
47713;SDS011;33475;46.614;13.888;2023-08-21T04:01:53;12.68;;;11.25;;
47713;SDS011;33475;46.614;13.888;2023-08-21T04:04:19;14.70;;;11.38;;
47713;SDS011;33475;46.614;13.888;2023-08-21T04:06:45;14.57;;;10.73;;
47713;SDS011;33475;46.614;13.888;2023-08-21T04:09:11;12.68;;;11.00;;
47713;SDS011;33475;46.614;13.888;2023-08-21T04:11:37;16.48;;;10.70;;
47713;SDS011;33475;46.614;13.888;2023-08-21T04:14:03;15.98;;;11.43;;
47713;SDS011;33475;46.614;13.888;2023-08-21T04:16:30;12.43;;;11.13;;
47713;SDS011;33475;46.614;13.888;2023-08-21T04:18:56;10.40;;;9.25;;
47713;SDS011;33475;46.614;13.888;2023-08-21T04:21:23;12.02;;;9.20;;
47713;SDS011;33475;46.614;13.888;2023-08-21T04:23:49;10.60;;;9.32;;
47713;SDS011;33475;46.614;13.888;2023-08-21T04:26:15;9.50;;;8.68;;
47713;SDS011;33475;46.614;13.888;2023-08-21T04:28:41;15.57;;;9.07;;
47713;SDS011;33475;46.614;13.888;2023-08-21T04:31:07;17.15;;;9.30;;
47713;SDS011;33475;46.614;13.888;2023-08-21T04:33:34;11.13;;;9.43;;
47713;SDS011;33475;46.614;13.888;2023-08-21T04:36:01;11.45;;;9.38;;
47713;SDS011;33475;46.614;13.888;2023-08-21T04:38:27;13.55;;;9.63;;
47713;SDS011;33475;46.614;13.888;2023-08-21T04:40:53;12.88;;;9.48;;
47713;SDS011;33475;46.614;13.888;2023-08-21T04:43:19;11.00;;;9.35;;
47713;SDS011;33475;46.614;13.888;2023-08-21T04:45:48;18.58;;;10.15;;
47713;SDS011;33475;46.614;13.888;2023-08-21T04:48:18;11.52;;;10.27;;
47713;SDS011;33475;46.614;13.888;2023-08-21T04:50:45;15.98;;;9.82;;
47713;SDS011;33475;46.614;13.888;2023-08-21T04:53:12;26.33;;;9.88;;
47713;SDS011;33475;46.614;13.888;2023-08-21T04:55:41;10.75;;;9.70;;
47713;SDS011;33475;46.614;13.888;2023-08-21T04:58:08;13.90;;;9.60;;
47713;SDS011;33475;46.614;13.888;2023-08-21T05:00:35;14.10;;;9.13;;
47713;SDS011;33475;46.614;13.888;2023-08-21T05:03:01;11.00;;;9.40;;
47713;SDS011;33475;46.614;13.888;2023-08-21T05:05:27;16.67;;;9.18;;
47713;SDS011;33475;46.614;13.888;2023-08-21T05:07:53;10.38;;;9.38;;
47713;SDS011;33475;46.614;13.888;2023-08-21T05:10:19;9.10;;;8.30;;
47713;SDS011;33475;46.614;13.888;2023-08-21T05:12:46;11.05;;;9.65;;
47713;SDS011;33475;46.614;13.888;2023-08-21T05:15:12;10.55;;;9.15;;
47713;SDS011;33475;46.614;13.888;2023-08-21T05:17:39;8.88;;;8.18;;
47713;SDS011;33475;46.614;13.888;2023-08-21T05:20:06;11.70;;;9.18;;
47713;SDS011;33475;46.614;13.888;2023-08-21T05:22:32;9.30;;;8.50;;
47713;SDS011;33475;46.614;13.888;2023-08-21T05:24:58;10.90;;;8.10;;
47713;SDS011;33475;46.614;13.888;2023-08-21T05:27:24;9.60;;;8.60;;
47713;SDS011;33475;46.614;13.888;2023-08-21T05:29:50;9.68;;;8.88;;
47713;SDS011;33475;46.614;13.888;2023-08-21T05:32:16;15.02;;;9.10;;
47713;SDS011;33475;46.614;13.888;2023-08-21T05:34:43;11.50;;;10.20;;
47713;SDS011;33475;46.614;13.888;2023-08-21T05:37:09;15.50;;;10.00;;
47713;SDS011;33475;46.614;13.888;2023-08-21T05:39:36;11.90;;;9.73;;
47713;SDS011;33475;46.614;13.888;2023-08-21T05:42:02;15.32;;;9.50;;
47713;SDS011;33475;46.614;13.888;2023-08-21T05:44:28;15.27;;;8.95;;
47713;SDS011;33475;46.614;13.888;2023-08-21T05:46:54;9.85;;;8.95;;
47713;SDS011;33475;46.614;13.888;2023-08-21T05:49:21;9.95;;;8.27;;
47713;SDS011;33475;46.614;13.888;2023-08-21T05:51:47;8.35;;;7.68;;
47713;SDS011;33475;46.614;13.888;2023-08-21T05:54:13;8.68;;;7.88;;
47713;SDS011;33475;46.614;13.888;2023-08-21T05:56:39;13.27;;;9.05;;
47713;SDS011;33475;46.614;13.888;2023-08-21T05:59:05;9.55;;;8.05;;
47713;SDS011;33475;46.614;13.888;2023-08-21T06:01:31;7.88;;;7.18;;
47713;SDS011;33475;46.614;13.888;2023-08-21T06:03:57;9.98;;;7.47;;
47713;SDS011;33475;46.614;13.888;2023-08-21T06:06:23;9.63;;;6.90;;
47713;SDS011;33475;46.614;13.888;2023-08-21T06:08:49;8.77;;;7.72;;
47713;SDS011;33475;46.614;13.888;2023-08-21T06:11:16;13.30;;;7.88;;
47713;SDS011;33475;46.614;13.888;2023-08-21T06:13:42;8.05;;;7.25;;
47713;SDS011;33475;46.614;13.888;2023-08-21T06:16:08;15.88;;;7.72;;
47713;SDS011;33475;46.614;13.888;2023-08-21T06:18:34;11.73;;;7.18;;
47713;SDS011;33475;46.614;13.888;2023-08-21T06:21:00;10.10;;;7.10;;
47713;SDS011;33475;46.614;13.888;2023-08-21T06:23:26;10.23;;;7.60;;
47713;SDS011;33475;46.614;13.888;2023-08-21T06:25:52;8.00;;;7.30;;
47713;SDS011;33475;46.614;13.888;2023-08-21T06:28:19;8.88;;;6.55;;
47713;SDS011;33475;46.614;13.888;2023-08-21T06:30:45;7.85;;;7.15;;
47713;SDS011;33475;46.614;13.888;2023-08-21T06:33:11;10.88;;;6.55;;
47713;SDS011;33475;46.614;13.888;2023-08-21T06:35:37;8.57;;;6.25;;
47713;SDS011;33475;46.614;13.888;2023-08-21T06:38:04;7.50;;;6.90;;
47713;SDS011;33475;46.614;13.888;2023-08-21T06:40:30;7.65;;;6.82;;
47713;SDS011;33475;46.614;13.888;2023-08-21T06:42:57;6.60;;;6.13;;
47713;SDS011;33475;46.614;13.888;2023-08-21T06:45:24;6.80;;;6.30;;
47713;SDS011;33475;46.614;13.888;2023-08-21T06:47:50;10.00;;;6.32;;
47713;SDS011;33475;46.614;13.888;2023-08-21T06:50:16;10.95;;;7.15;;
47713;SDS011;33475;46.614;13.888;2023-08-21T06:52:42;13.88;;;6.45;;
47713;SDS011;33475;46.614;13.888;2023-08-21T06:55:08;7.07;;;6.38;;
47713;SDS011;33475;46.614;13.888;2023-08-21T06:57:35;9.40;;;6.28;;
47713;SDS011;33475;46.614;13.888;2023-08-21T07:00:03;9.40;;;5.82;;
47713;SDS011;33475;46.614;13.888;2023-08-21T07:02:30;7.78;;;6.47;;
47713;SDS011;33475;46.614;13.888;2023-08-21T07:04:56;7.03;;;5.95;;
47713;SDS011;33475;46.614;13.888;2023-08-21T07:07:23;6.75;;;6.00;;
47713;SDS011;33475;46.614;13.888;2023-08-21T07:09:50;7.68;;;6.18;;
47713;SDS011;33475;46.614;13.888;2023-08-21T07:12:16;9.48;;;6.43;;
47713;SDS011;33475;46.614;13.888;2023-08-21T07:14:42;6.47;;;5.97;;
47713;SDS011;33475;46.614;13.888;2023-08-21T07:17:08;9.05;;;6.43;;
47713;SDS011;33475;46.614;13.888;2023-08-21T07:19:34;9.38;;;5.93;;
47713;SDS011;33475;46.614;13.888;2023-08-21T07:22:00;7.65;;;6.07;;
47713;SDS011;33475;46.614;13.888;2023-08-21T07:24:27;10.60;;;5.82;;
47713;SDS011;33475;46.614;13.888;2023-08-21T07:26:53;7.03;;;6.43;;
47713;SDS011;33475;46.614;13.888;2023-08-21T07:29:19;6.32;;;5.72;;
47713;SDS011;33475;46.614;13.888;2023-08-21T07:31:45;11.48;;;6.03;;
47713;SDS011;33475;46.614;13.888;2023-08-21T07:34:11;7.50;;;6.70;;
47713;SDS011;33475;46.614;13.888;2023-08-21T07:36:38;6.65;;;5.93;;
47713;SDS011;33475;46.614;13.888;2023-08-21T07:39:04;10.05;;;5.78;;
47713;SDS011;33475;46.614;13.888;2023-08-21T07:41:30;6.22;;;5.72;;
47713;SDS011;33475;46.614;13.888;2023-08-21T07:43:56;7.05;;;5.85;;
47713;SDS011;33475;46.614;13.888;2023-08-21T07:46:22;5.60;;;4.90;;
47713;SDS011;33475;46.614;13.888;2023-08-21T07:48:49;5.47;;;4.97;;
47713;SDS011;33475;46.614;13.888;2023-08-21T07:51:15;8.10;;;5.68;;
47713;SDS011;33475;46.614;13.888;2023-08-21T07:53:42;8.88;;;4.60;;
47713;SDS011;33475;46.614;13.888;2023-08-21T07:56:08;6.78;;;5.53;;
47713;SDS011;33475;46.614;13.888;2023-08-21T07:58:34;5.88;;;5.38;;
47713;SDS011;33475;46.614;13.888;2023-08-21T08:01:00;7.38;;;5.70;;
47713;SDS011;33475;46.614;13.888;2023-08-21T08:03:26;10.27;;;5.82;;
47713;SDS011;33475;46.614;13.888;2023-08-21T08:05:53;7.13;;;5.30;;
47713;SDS011;33475;46.614;13.888;2023-08-21T08:08:19;10.60;;;5.57;;
47713;SDS011;33475;46.614;13.888;2023-08-21T08:10:45;9.90;;;5.70;;
47713;SDS011;33475;46.614;13.888;2023-08-21T08:13:11;17.65;;;5.65;;
47713;SDS011;33475;46.614;13.888;2023-08-21T08:15:37;8.05;;;5.43;;
47713;SDS011;33475;46.614;13.888;2023-08-21T08:18:04;9.40;;;6.90;;
47713;SDS011;33475;46.614;13.888;2023-08-21T08:20:32;10.70;;;5.90;;
47713;SDS011;33475;46.614;13.888;2023-08-21T08:22:58;10.13;;;5.97;;
47713;SDS011;33475;46.614;13.888;2023-08-21T08:25:25;7.40;;;6.40;;
47713;SDS011;33475;46.614;13.888;2023-08-21T08:27:51;7.03;;;5.82;;
47713;SDS011;33475;46.614;13.888;2023-08-21T08:30:17;6.70;;;6.10;;
47713;SDS011;33475;46.614;13.888;2023-08-21T08:32:44;8.10;;;5.60;;
47713;SDS011;33475;46.614;13.888;2023-08-21T08:35:14;7.40;;;5.53;;
47713;SDS011;33475;46.614;13.888;2023-08-21T08:37:41;6.55;;;6.03;;
47713;SDS011;33475;46.614;13.888;2023-08-21T08:40:07;6.15;;;5.57;;
47713;SDS011;33475;46.614;13.888;2023-08-21T08:42:34;8.93;;;5.97;;
47713;SDS011;33475;46.614;13.888;2023-08-21T08:45:04;9.38;;;5.93;;
47713;SDS011;33475;46.614;13.888;2023-08-21T08:47:34;6.13;;;5.10;;
47713;SDS011;33475;46.614;13.888;2023-08-21T08:50:01;9.02;;;6.05;;
47713;SDS011;33475;46.614;13.888;2023-08-21T08:52:29;10.43;;;5.93;;
47713;SDS011;33475;46.614;13.888;2023-08-21T08:54:56;13.82;;;5.13;;
47713;SDS011;33475;46.614;13.888;2023-08-21T08:57:24;19.25;;;5.60;;
47713;SDS011;33475;46.614;13.888;2023-08-21T08:59:50;8.70;;;5.93;;
47713;SDS011;33475;46.614;13.888;2023-08-21T09:02:16;9.73;;;5.70;;
47713;SDS011;33475;46.614;13.888;2023-08-21T09:04:42;8.23;;;5.53;;
47713;SDS011;33475;46.614;13.888;2023-08-21T09:07:09;11.63;;;4.93;;
47713;SDS011;33475;46.614;13.888;2023-08-21T09:09:39;7.95;;;5.07;;
47713;SDS011;33475;46.614;13.888;2023-08-21T09:12:10;9.63;;;4.97;;
47713;SDS011;33475;46.614;13.888;2023-08-21T09:14:38;14.05;;;4.75;;
47713;SDS011;33475;46.614;13.888;2023-08-21T09:17:05;10.02;;;5.05;;
47713;SDS011;33475;46.614;13.888;2023-08-21T09:19:31;5.55;;;5.05;;
47713;SDS011;33475;46.614;13.888;2023-08-21T09:21:57;5.22;;;4.82;;
47713;SDS011;33475;46.614;13.888;2023-08-21T09:24:24;6.20;;;4.85;;
47713;SDS011;33475;46.614;13.888;2023-08-21T09:26:50;6.43;;;5.30;;
47713;SDS011;33475;46.614;13.888;2023-08-21T09:29:17;6.88;;;4.60;;
47713;SDS011;33475;46.614;13.888;2023-08-21T09:31:44;4.85;;;4.40;;
47713;SDS011;33475;46.614;13.888;2023-08-21T09:34:11;8.23;;;5.25;;
47713;SDS011;33475;46.614;13.888;2023-08-21T09:36:38;8.43;;;4.88;;
47713;SDS011;33475;46.614;13.888;2023-08-21T09:39:04;5.95;;;4.45;;
47713;SDS011;33475;46.614;13.888;2023-08-21T09:41:31;10.00;;;4.80;;
47713;SDS011;33475;46.614;13.888;2023-08-21T09:43:58;5.65;;;4.78;;
47713;SDS011;33475;46.614;13.888;2023-08-21T09:46:26;5.22;;;4.82;;
47713;SDS011;33475;46.614;13.888;2023-08-21T09:48:53;6.00;;;5.35;;
47713;SDS011;33475;46.614;13.888;2023-08-21T09:51:20;5.65;;;5.15;;
47713;SDS011;33475;46.614;13.888;2023-08-21T09:53:49;6.82;;;5.07;;
47713;SDS011;33475;46.614;13.888;2023-08-21T09:56:19;6.03;;;4.50;;
47713;SDS011;33475;46.614;13.888;2023-08-21T09:58:48;6.93;;;4.90;;
47713;SDS011;33475;46.614;13.888;2023-08-21T10:01:14;7.07;;;5.00;;
47713;SDS011;33475;46.614;13.888;2023-08-21T10:03:41;9.05;;;4.60;;
47713;SDS011;33475;46.614;13.888;2023-08-21T10:06:10;5.15;;;4.65;;
47713;SDS011;33475;46.614;13.888;2023-08-21T10:08:37;5.05;;;4.65;;
47713;SDS011;33475;46.614;13.888;2023-08-21T10:11:07;5.00;;;4.60;;
47713;SDS011;33475;46.614;13.888;2023-08-21T10:13:34;11.75;;;4.60;;
47713;SDS011;33475;46.614;13.888;2023-08-21T10:16:00;6.00;;;4.57;;
47713;SDS011;33475;46.614;13.888;2023-08-21T10:18:31;8.40;;;4.80;;
47713;SDS011;33475;46.614;13.888;2023-08-21T10:21:19;6.03;;;5.38;;
47713;SDS011;33475;46.614;13.888;2023-08-21T10:23:47;9.07;;;4.95;;
47713;SDS011;33475;46.614;13.888;2023-08-21T10:26:14;11.40;;;4.75;;
47713;SDS011;33475;46.614;13.888;2023-08-21T10:28:59;7.32;;;4.30;;
47713;SDS011;33475;46.614;13.888;2023-08-21T10:31:39;5.07;;;4.53;;
47713;SDS011;33475;46.614;13.888;2023-08-21T10:34:06;6.30;;;4.10;;
47713;SDS011;33475;46.614;13.888;2023-08-21T10:39:12;5.97;;;3.88;;
47713;SDS011;33475;46.614;13.888;2023-08-21T10:41:39;7.38;;;4.60;;
47713;SDS011;33475;46.614;13.888;2023-08-21T10:44:06;15.93;;;4.22;;
47713;SDS011;33475;46.614;13.888;2023-08-21T10:46:52;5.13;;;3.90;;
47713;SDS011;33475;46.614;13.888;2023-08-21T10:49:18;4.18;;;3.88;;
47713;SDS011;33475;46.614;13.888;2023-08-21T10:51:44;4.57;;;4.15;;
47713;SDS011;33475;46.614;13.888;2023-08-21T10:54:11;4.10;;;3.80;;
47713;SDS011;33475;46.614;13.888;2023-08-21T10:56:37;6.68;;;3.83;;
47713;SDS011;33475;46.614;13.888;2023-08-21T10:59:03;6.15;;;4.03;;
47713;SDS011;33475;46.614;13.888;2023-08-21T11:01:42;6.07;;;3.40;;
47713;SDS011;33475;46.614;13.888;2023-08-21T11:04:10;4.75;;;3.55;;
47713;SDS011;33475;46.614;13.888;2023-08-21T11:06:37;14.02;;;3.13;;
47713;SDS011;33475;46.614;13.888;2023-08-21T11:09:03;4.07;;;3.78;;
47713;SDS011;33475;46.614;13.888;2023-08-21T11:11:30;3.60;;;3.30;;
47713;SDS011;33475;46.614;13.888;2023-08-21T11:13:56;3.40;;;3.10;;
47713;SDS011;33475;46.614;13.888;2023-08-21T11:16:24;8.70;;;3.10;;
47713;SDS011;33475;46.614;13.888;2023-08-21T11:18:51;3.90;;;2.90;;
47713;SDS011;33475;46.614;13.888;2023-08-21T11:21:17;3.00;;;2.80;;
47713;SDS011;33475;46.614;13.888;2023-08-21T11:23:43;9.18;;;3.17;;
47713;SDS011;33475;46.614;13.888;2023-08-21T11:26:10;10.20;;;3.00;;
47713;SDS011;33475;46.614;13.888;2023-08-21T11:28:36;3.47;;;3.03;;
47713;SDS011;33475;46.614;13.888;2023-08-21T11:31:04;3.25;;;2.95;;
47713;SDS011;33475;46.614;13.888;2023-08-21T11:33:30;2.97;;;2.70;;
47713;SDS011;33475;46.614;13.888;2023-08-21T11:35:57;5.47;;;3.00;;
47713;SDS011;33475;46.614;13.888;2023-08-21T11:38:24;4.18;;;3.00;;
47713;SDS011;33475;46.614;13.888;2023-08-21T11:40:55;5.70;;;2.50;;
47713;SDS011;33475;46.614;13.888;2023-08-21T11:43:24;5.32;;;2.58;;
47713;SDS011;33475;46.614;13.888;2023-08-21T11:46:00;7.75;;;2.42;;
47713;SDS011;33475;46.614;13.888;2023-08-21T11:48:27;2.45;;;2.25;;
47713;SDS011;33475;46.614;13.888;2023-08-21T11:50:53;4.93;;;3.60;;
47713;SDS011;33475;46.614;13.888;2023-08-21T11:55:58;2.70;;;2.28;;
47713;SDS011;33475;46.614;13.888;2023-08-21T11:58:26;5.97;;;2.10;;
47713;SDS011;33475;46.614;13.888;2023-08-21T12:01:02;6.53;;;2.33;;
47713;SDS011;33475;46.614;13.888;2023-08-21T12:03:29;3.78;;;2.20;;
47713;SDS011;33475;46.614;13.888;2023-08-21T12:05:56;3.75;;;2.45;;
47713;SDS011;33475;46.614;13.888;2023-08-21T12:08:22;2.80;;;2.03;;
47713;SDS011;33475;46.614;13.888;2023-08-21T12:10:51;2.38;;;2.05;;
47713;SDS011;33475;46.614;13.888;2023-08-21T12:13:18;2.60;;;2.20;;
47713;SDS011;33475;46.614;13.888;2023-08-21T12:15:44;3.08;;;1.63;;
47713;SDS011;33475;46.614;13.888;2023-08-21T12:18:10;2.33;;;2.10;;
47713;SDS011;33475;46.614;13.888;2023-08-21T12:20:36;2.30;;;2.08;;
47713;SDS011;33475;46.614;13.888;2023-08-21T12:23:03;2.25;;;2.15;;
47713;SDS011;33475;46.614;13.888;2023-08-21T12:25:29;10.45;;;2.10;;
47713;SDS011;33475;46.614;13.888;2023-08-21T12:27:57;7.60;;;2.33;;
47713;SDS011;33475;46.614;13.888;2023-08-21T12:30:23;4.03;;;1.80;;
47713;SDS011;33475;46.614;13.888;2023-08-21T12:32:49;3.05;;;1.75;;
47713;SDS011;33475;46.614;13.888;2023-08-21T12:35:15;2.55;;;1.60;;
47713;SDS011;33475;46.614;13.888;2023-08-21T12:37:41;4.25;;;1.90;;
47713;SDS011;33475;46.614;13.888;2023-08-21T12:40:07;4.45;;;1.98;;
47713;SDS011;33475;46.614;13.888;2023-08-21T12:42:34;1.63;;;1.50;;
47713;SDS011;33475;46.614;13.888;2023-08-21T12:45:00;1.52;;;1.42;;
47713;SDS011;33475;46.614;13.888;2023-08-21T12:47:26;2.60;;;1.50;;
47713;SDS011;33475;46.614;13.888;2023-08-21T12:49:52;1.98;;;1.67;;
47713;SDS011;33475;46.614;13.888;2023-08-21T12:52:18;3.60;;;1.30;;
47713;SDS011;33475;46.614;13.888;2023-08-21T12:54:45;1.77;;;1.20;;
47713;SDS011;33475;46.614;13.888;2023-08-21T12:57:11;1.98;;;1.45;;
47713;SDS011;33475;46.614;13.888;2023-08-21T12:59:37;1.42;;;1.20;;
47713;SDS011;33475;46.614;13.888;2023-08-21T13:02:03;1.98;;;1.50;;
47713;SDS011;33475;46.614;13.888;2023-08-21T13:04:30;3.28;;;1.55;;
47713;SDS011;33475;46.614;13.888;2023-08-21T13:06:56;1.95;;;1.27;;
47713;SDS011;33475;46.614;13.888;2023-08-21T13:09:23;1.70;;;1.45;;
47713;SDS011;33475;46.614;13.888;2023-08-21T13:11:50;5.22;;;1.40;;
47713;SDS011;33475;46.614;13.888;2023-08-21T13:14:17;1.73;;;1.63;;
47713;SDS011;33475;46.614;13.888;2023-08-21T13:16:43;1.73;;;1.50;;
47713;SDS011;33475;46.614;13.888;2023-08-21T13:19:09;4.20;;;1.80;;
47713;SDS011;33475;46.614;13.888;2023-08-21T13:21:35;2.00;;;1.80;;
47713;SDS011;33475;46.614;13.888;2023-08-21T13:24:02;2.05;;;1.83;;
47713;SDS011;33475;46.614;13.888;2023-08-21T13:26:29;2.25;;;1.70;;
47713;SDS011;33475;46.614;13.888;2023-08-21T13:28:56;3.22;;;1.70;;
47713;SDS011;33475;46.614;13.888;2023-08-21T13:31:22;1.92;;;1.73;;
47713;SDS011;33475;46.614;13.888;2023-08-21T13:33:49;4.13;;;1.65;;
47713;SDS011;33475;46.614;13.888;2023-08-21T13:36:15;4.13;;;1.33;;
47713;SDS011;33475;46.614;13.888;2023-08-21T13:38:42;6.20;;;1.48;;
47713;SDS011;33475;46.614;13.888;2023-08-21T13:41:09;1.70;;;1.60;;
47713;SDS011;33475;46.614;13.888;2023-08-21T13:43:36;3.03;;;1.90;;
47713;SDS011;33475;46.614;13.888;2023-08-21T13:46:03;2.75;;;1.42;;
47713;SDS011;33475;46.614;13.888;2023-08-21T13:48:33;3.58;;;1.83;;
47713;SDS011;33475;46.614;13.888;2023-08-21T13:50:59;1.70;;;1.60;;
47713;SDS011;33475;46.614;13.888;2023-08-21T13:53:25;1.70;;;1.60;;
47713;SDS011;33475;46.614;13.888;2023-08-21T13:55:51;1.98;;;1.77;;
47713;SDS011;33475;46.614;13.888;2023-08-21T13:58:18;2.63;;;1.77;;
47713;SDS011;33475;46.614;13.888;2023-08-21T14:00:44;2.67;;;1.70;;
47713;SDS011;33475;46.614;13.888;2023-08-21T14:03:10;2.47;;;1.92;;
47713;SDS011;33475;46.614;13.888;2023-08-21T14:05:36;2.38;;;1.80;;
47713;SDS011;33475;46.614;13.888;2023-08-21T14:08:03;5.55;;;1.90;;
47713;SDS011;33475;46.614;13.888;2023-08-21T14:10:29;3.92;;;1.73;;
47713;SDS011;33475;46.614;13.888;2023-08-21T14:12:55;1.80;;;1.70;;
47713;SDS011;33475;46.614;13.888;2023-08-21T14:15:22;5.13;;;2.17;;
47713;SDS011;33475;46.614;13.888;2023-08-21T14:17:48;3.63;;;1.75;;
47713;SDS011;33475;46.614;13.888;2023-08-21T14:20:15;5.32;;;1.55;;
47713;SDS011;33475;46.614;13.888;2023-08-21T14:22:41;3.35;;;1.90;;
47713;SDS011;33475;46.614;13.888;2023-08-21T14:25:08;3.42;;;1.98;;
47713;SDS011;33475;46.614;13.888;2023-08-21T14:27:34;2.00;;;1.60;;
47713;SDS011;33475;46.614;13.888;2023-08-21T14:30:00;2.80;;;1.73;;
47713;SDS011;33475;46.614;13.888;2023-08-21T14:32:26;3.97;;;2.17;;
47713;SDS011;33475;46.614;13.888;2023-08-21T14:34:53;4.95;;;1.70;;